sensor_id;sensor_type;location;lat;lon;timestamp;P1;durP1;ratioP1;P2;durP2;ratioP2
1258;SDS011;619;51.472;6.628;2023-03-23T00:01:16;3.80;;;2.57;;
1258;SDS011;619;51.472;6.628;2023-03-23T00:03:47;3.60;;;3.20;;
1258;SDS011;619;51.472;6.628;2023-03-23T00:06:17;2.80;;;2.13;;
1258;SDS011;619;51.472;6.628;2023-03-23T00:08:49;5.17;;;2.70;;
1258;SDS011;619;51.472;6.628;2023-03-23T00:11:22;3.70;;;3.17;;
1258;SDS011;619;51.472;6.628;2023-03-23T00:13:54;3.53;;;2.60;;
1258;SDS011;619;51.472;6.628;2023-03-23T00:16:25;3.57;;;2.60;;
1258;SDS011;619;51.472;6.628;2023-03-23T00:19:06;4.37;;;2.83;;
1258;SDS011;619;51.472;6.628;2023-03-23T00:21:36;4.10;;;3.00;;
1258;SDS011;619;51.472;6.628;2023-03-23T00:26:31;3.63;;;3.23;;
1258;SDS011;619;51.472;6.628;2023-03-23T00:29:01;3.80;;;2.37;;
1258;SDS011;619;51.472;6.628;2023-03-23T00:31:30;3.40;;;3.10;;
1258;SDS011;619;51.472;6.628;2023-03-23T00:33:58;3.83;;;2.57;;
1258;SDS011;619;51.472;6.628;2023-03-23T00:36:27;3.40;;;2.63;;
1258;SDS011;619;51.472;6.628;2023-03-23T00:38:53;3.27;;;2.97;;
1258;SDS011;619;51.472;6.628;2023-03-23T00:41:25;2.83;;;2.50;;
1258;SDS011;619;51.472;6.628;2023-03-23T00:43:55;5.80;;;2.90;;
1258;SDS011;619;51.472;6.628;2023-03-23T00:46:27;3.20;;;2.90;;
1258;SDS011;619;51.472;6.628;2023-03-23T00:48:56;5.60;;;3.20;;
1258;SDS011;619;51.472;6.628;2023-03-23T00:51:25;3.43;;;2.63;;
1258;SDS011;619;51.472;6.628;2023-03-23T00:53:53;4.20;;;3.30;;
1258;SDS011;619;51.472;6.628;2023-03-23T00:56:18;4.23;;;2.97;;
1258;SDS011;619;51.472;6.628;2023-03-23T00:58:44;3.10;;;2.80;;
1258;SDS011;619;51.472;6.628;2023-03-23T01:01:10;3.20;;;2.37;;
1258;SDS011;619;51.472;6.628;2023-03-23T01:03:37;3.00;;;2.50;;
1258;SDS011;619;51.472;6.628;2023-03-23T01:06:04;4.57;;;3.00;;
1258;SDS011;619;51.472;6.628;2023-03-23T01:08:31;3.07;;;2.70;;
1258;SDS011;619;51.472;6.628;2023-03-23T01:11:03;4.10;;;3.00;;
1258;SDS011;619;51.472;6.628;2023-03-23T01:13:30;4.43;;;3.07;;
1258;SDS011;619;51.472;6.628;2023-03-23T01:15:58;5.53;;;2.77;;
1258;SDS011;619;51.472;6.628;2023-03-23T01:18:23;4.73;;;4.30;;
1258;SDS011;619;51.472;6.628;2023-03-23T01:20:49;5.07;;;3.00;;
1258;SDS011;619;51.472;6.628;2023-03-23T01:23:17;4.67;;;3.20;;
1258;SDS011;619;51.472;6.628;2023-03-23T01:25:43;4.33;;;2.77;;
1258;SDS011;619;51.472;6.628;2023-03-23T01:28:11;3.87;;;3.57;;
1258;SDS011;619;51.472;6.628;2023-03-23T01:30:39;3.83;;;2.53;;
1258;SDS011;619;51.472;6.628;2023-03-23T01:33:07;3.17;;;2.40;;
1258;SDS011;619;51.472;6.628;2023-03-23T01:35:36;3.00;;;2.53;;
1258;SDS011;619;51.472;6.628;2023-03-23T01:38:02;4.97;;;3.13;;
1258;SDS011;619;51.472;6.628;2023-03-23T01:40:28;3.60;;;2.83;;
1258;SDS011;619;51.472;6.628;2023-03-23T01:42:56;3.30;;;2.67;;
1258;SDS011;619;51.472;6.628;2023-03-23T01:45:26;4.00;;;2.50;;
1258;SDS011;619;51.472;6.628;2023-03-23T01:51:04;4.13;;;2.90;;
1258;SDS011;619;51.472;6.628;2023-03-23T01:53:42;3.50;;;2.67;;
1258;SDS011;619;51.472;6.628;2023-03-23T01:56:16;4.70;;;2.70;;
1258;SDS011;619;51.472;6.628;2023-03-23T01:58:45;3.07;;;2.70;;
1258;SDS011;619;51.472;6.628;2023-03-23T02:01:11;3.70;;;3.10;;
1258;SDS011;619;51.472;6.628;2023-03-23T02:03:40;3.23;;;2.80;;
1258;SDS011;619;51.472;6.628;2023-03-23T02:06:09;2.93;;;2.70;;
1258;SDS011;619;51.472;6.628;2023-03-23T02:08:34;3.97;;;3.10;;
1258;SDS011;619;51.472;6.628;2023-03-23T02:11:08;3.00;;;2.70;;
1258;SDS011;619;51.472;6.628;2023-03-23T02:13:37;3.17;;;2.50;;
1258;SDS011;619;51.472;6.628;2023-03-23T02:26:33;4.00;;;3.60;;
1258;SDS011;619;51.472;6.628;2023-03-23T02:29:45;3.97;;;3.23;;
1258;SDS011;619;51.472;6.628;2023-03-23T02:37:07;3.13;;;2.80;;
1258;SDS011;619;51.472;6.628;2023-03-23T02:39:49;3.13;;;2.83;;
1258;SDS011;619;51.472;6.628;2023-03-23T02:42:24;3.43;;;2.90;;
1258;SDS011;619;51.472;6.628;2023-03-23T02:44:53;3.33;;;2.90;;
1258;SDS011;619;51.472;6.628;2023-03-23T02:47:22;3.07;;;2.77;;
1258;SDS011;619;51.472;6.628;2023-03-23T02:49:53;3.30;;;2.70;;
1258;SDS011;619;51.472;6.628;2023-03-23T02:52:23;3.00;;;2.63;;
1258;SDS011;619;51.472;6.628;2023-03-23T02:54:52;2.80;;;2.60;;
1258;SDS011;619;51.472;6.628;2023-03-23T02:57:22;3.03;;;2.73;;
1258;SDS011;619;51.472;6.628;2023-03-23T02:59:53;3.10;;;2.80;;
1258;SDS011;619;51.472;6.628;2023-03-23T03:02:26;3.70;;;2.90;;
1258;SDS011;619;51.472;6.628;2023-03-23T03:10:25;3.70;;;2.83;;
1258;SDS011;619;51.472;6.628;2023-03-23T03:15:36;4.83;;;3.27;;
1258;SDS011;619;51.472;6.628;2023-03-23T03:18:09;3.77;;;2.50;;
1258;SDS011;619;51.472;6.628;2023-03-23T03:20:44;3.67;;;2.73;;
1258;SDS011;619;51.472;6.628;2023-03-23T03:23:13;2.90;;;2.60;;
1258;SDS011;619;51.472;6.628;2023-03-23T03:25:41;7.23;;;2.70;;
1258;SDS011;619;51.472;6.628;2023-03-23T03:28:13;4.77;;;2.97;;
1258;SDS011;619;51.472;6.628;2023-03-23T03:30:44;2.70;;;2.50;;
1258;SDS011;619;51.472;6.628;2023-03-23T03:33:15;2.93;;;2.40;;
1258;SDS011;619;51.472;6.628;2023-03-23T03:35:45;4.10;;;2.83;;
1258;SDS011;619;51.472;6.628;2023-03-23T03:38:14;3.30;;;3.00;;
1258;SDS011;619;51.472;6.628;2023-03-23T03:40:45;2.70;;;1.93;;
1258;SDS011;619;51.472;6.628;2023-03-23T03:43:10;3.43;;;3.03;;
1258;SDS011;619;51.472;6.628;2023-03-23T03:45:38;3.13;;;2.77;;
1258;SDS011;619;51.472;6.628;2023-03-23T03:48:05;2.97;;;2.67;;
1258;SDS011;619;51.472;6.628;2023-03-23T03:50:34;2.80;;;2.47;;
1258;SDS011;619;51.472;6.628;2023-03-23T03:53:03;2.67;;;2.23;;
1258;SDS011;619;51.472;6.628;2023-03-23T03:55:30;4.20;;;2.20;;
1258;SDS011;619;51.472;6.628;2023-03-23T03:58:01;3.67;;;2.80;;
1258;SDS011;619;51.472;6.628;2023-03-23T04:00:29;2.60;;;2.40;;
1258;SDS011;619;51.472;6.628;2023-03-23T04:02:55;3.10;;;2.50;;
1258;SDS011;619;51.472;6.628;2023-03-23T04:05:24;3.00;;;2.20;;
1258;SDS011;619;51.472;6.628;2023-03-23T04:07:53;3.77;;;2.77;;
1258;SDS011;619;51.472;6.628;2023-03-23T04:10:29;2.33;;;2.13;;
1258;SDS011;619;51.472;6.628;2023-03-23T04:12:56;2.80;;;2.30;;
1258;SDS011;619;51.472;6.628;2023-03-23T04:15:24;2.70;;;2.50;;
1258;SDS011;619;51.472;6.628;2023-03-23T04:17:51;2.60;;;2.40;;
1258;SDS011;619;51.472;6.628;2023-03-23T04:20:16;2.43;;;2.23;;
1258;SDS011;619;51.472;6.628;2023-03-23T04:22:49;2.93;;;2.47;;
1258;SDS011;619;51.472;6.628;2023-03-23T04:25:22;2.80;;;2.50;;
1258;SDS011;619;51.472;6.628;2023-03-23T04:27:51;2.40;;;2.20;;
1258;SDS011;619;51.472;6.628;2023-03-23T04:30:20;4.40;;;2.37;;
1258;SDS011;619;51.472;6.628;2023-03-23T04:32:48;2.40;;;2.20;;
1258;SDS011;619;51.472;6.628;2023-03-23T04:35:17;2.47;;;2.27;;
1258;SDS011;619;51.472;6.628;2023-03-23T04:37:45;3.00;;;2.60;;
1258;SDS011;619;51.472;6.628;2023-03-23T04:40:13;3.20;;;2.57;;
1258;SDS011;619;51.472;6.628;2023-03-23T04:42:43;3.07;;;2.57;;
1258;SDS011;619;51.472;6.628;2023-03-23T04:45:14;2.43;;;2.23;;
1258;SDS011;619;51.472;6.628;2023-03-23T04:47:46;2.53;;;2.33;;
1258;SDS011;619;51.472;6.628;2023-03-23T04:50:20;2.50;;;2.30;;
1258;SDS011;619;51.472;6.628;2023-03-23T04:52:49;2.50;;;2.30;;
1258;SDS011;619;51.472;6.628;2023-03-23T04:55:18;3.33;;;2.70;;
1258;SDS011;619;51.472;6.628;2023-03-23T04:57:49;4.10;;;2.60;;
1258;SDS011;619;51.472;6.628;2023-03-23T05:00:19;3.33;;;2.60;;
1258;SDS011;619;51.472;6.628;2023-03-23T05:02:46;2.60;;;2.40;;
1258;SDS011;619;51.472;6.628;2023-03-23T05:05:12;4.53;;;2.80;;
1258;SDS011;619;51.472;6.628;2023-03-23T05:07:41;3.50;;;2.50;;
1258;SDS011;619;51.472;6.628;2023-03-23T05:10:12;3.10;;;2.60;;
1258;SDS011;619;51.472;6.628;2023-03-23T05:12:41;5.93;;;2.57;;
1258;SDS011;619;51.472;6.628;2023-03-23T05:15:13;3.13;;;2.37;;
1258;SDS011;619;51.472;6.628;2023-03-23T05:17:42;3.80;;;2.97;;
1258;SDS011;619;51.472;6.628;2023-03-23T05:20:12;3.90;;;2.73;;
1258;SDS011;619;51.472;6.628;2023-03-23T05:22:39;5.23;;;2.60;;
1258;SDS011;619;51.472;6.628;2023-03-23T05:25:09;3.13;;;2.40;;
1258;SDS011;619;51.472;6.628;2023-03-23T05:27:36;2.50;;;2.13;;
1258;SDS011;619;51.472;6.628;2023-03-23T05:30:03;3.40;;;2.67;;
1258;SDS011;619;51.472;6.628;2023-03-23T05:32:30;3.10;;;2.70;;
1258;SDS011;619;51.472;6.628;2023-03-23T05:34:58;2.77;;;2.37;;
1258;SDS011;619;51.472;6.628;2023-03-23T05:37:25;2.60;;;2.37;;
1258;SDS011;619;51.472;6.628;2023-03-23T05:39:53;3.83;;;2.67;;
1258;SDS011;619;51.472;6.628;2023-03-23T05:42:21;3.63;;;2.23;;
1258;SDS011;619;51.472;6.628;2023-03-23T05:44:49;3.03;;;2.83;;
1258;SDS011;619;51.472;6.628;2023-03-23T05:47:15;4.13;;;1.90;;
1258;SDS011;619;51.472;6.628;2023-03-23T05:49:41;3.43;;;2.73;;
1258;SDS011;619;51.472;6.628;2023-03-23T05:52:10;4.33;;;2.80;;
1258;SDS011;619;51.472;6.628;2023-03-23T05:54:35;2.63;;;2.43;;
1258;SDS011;619;51.472;6.628;2023-03-23T05:57:01;3.03;;;2.73;;
1258;SDS011;619;51.472;6.628;2023-03-23T05:59:30;2.90;;;2.60;;
1258;SDS011;619;51.472;6.628;2023-03-23T06:01:58;2.33;;;2.10;;
1258;SDS011;619;51.472;6.628;2023-03-23T06:04:26;7.90;;;2.80;;
1258;SDS011;619;51.472;6.628;2023-03-23T06:06:59;2.80;;;2.53;;
1258;SDS011;619;51.472;6.628;2023-03-23T06:09:25;2.60;;;2.40;;
1258;SDS011;619;51.472;6.628;2023-03-23T06:11:51;3.30;;;2.50;;
1258;SDS011;619;51.472;6.628;2023-03-23T06:14:21;6.17;;;2.37;;
1258;SDS011;619;51.472;6.628;2023-03-23T06:16:48;3.43;;;2.57;;
1258;SDS011;619;51.472;6.628;2023-03-23T06:19:18;8.50;;;2.90;;
1258;SDS011;619;51.472;6.628;2023-03-23T06:21:47;8.13;;;2.97;;
1258;SDS011;619;51.472;6.628;2023-03-23T06:24:17;2.97;;;2.40;;
1258;SDS011;619;51.472;6.628;2023-03-23T06:26:42;3.63;;;2.70;;
1258;SDS011;619;51.472;6.628;2023-03-23T06:29:09;4.03;;;2.87;;
1258;SDS011;619;51.472;6.628;2023-03-23T06:31:41;5.57;;;2.00;;
1258;SDS011;619;51.472;6.628;2023-03-23T06:34:10;5.60;;;2.97;;
1258;SDS011;619;51.472;6.628;2023-03-23T06:36:36;3.23;;;2.47;;
1258;SDS011;619;51.472;6.628;2023-03-23T06:39:04;2.77;;;2.30;;
1258;SDS011;619;51.472;6.628;2023-03-23T06:41:30;3.23;;;2.30;;
1258;SDS011;619;51.472;6.628;2023-03-23T06:44:02;7.07;;;2.73;;
1258;SDS011;619;51.472;6.628;2023-03-23T06:46:31;7.33;;;2.33;;
1258;SDS011;619;51.472;6.628;2023-03-23T06:49:02;3.00;;;2.13;;
1258;SDS011;619;51.472;6.628;2023-03-23T06:51:28;3.97;;;2.70;;
1258;SDS011;619;51.472;6.628;2023-03-23T06:53:54;4.73;;;3.40;;
1258;SDS011;619;51.472;6.628;2023-03-23T06:56:22;3.60;;;2.30;;
1258;SDS011;619;51.472;6.628;2023-03-23T06:58:49;5.40;;;2.40;;
1258;SDS011;619;51.472;6.628;2023-03-23T07:01:17;4.10;;;2.43;;
1258;SDS011;619;51.472;6.628;2023-03-23T07:03:43;2.87;;;2.23;;
1258;SDS011;619;51.472;6.628;2023-03-23T07:06:11;4.23;;;2.60;;
1258;SDS011;619;51.472;6.628;2023-03-23T07:08:40;10.83;;;2.90;;
1258;SDS011;619;51.472;6.628;2023-03-23T07:11:10;4.23;;;2.90;;
1258;SDS011;619;51.472;6.628;2023-03-23T07:13:36;3.77;;;2.40;;
1258;SDS011;619;51.472;6.628;2023-03-23T07:16:04;4.27;;;2.73;;
1258;SDS011;619;51.472;6.628;2023-03-23T07:18:34;4.57;;;2.90;;
1258;SDS011;619;51.472;6.628;2023-03-23T07:21:00;4.23;;;2.90;;
1258;SDS011;619;51.472;6.628;2023-03-23T07:23:28;6.03;;;2.50;;
1258;SDS011;619;51.472;6.628;2023-03-23T07:25:56;4.10;;;2.40;;
1258;SDS011;619;51.472;6.628;2023-03-23T07:28:22;6.00;;;2.97;;
1258;SDS011;619;51.472;6.628;2023-03-23T07:30:48;2.30;;;1.90;;
1258;SDS011;619;51.472;6.628;2023-03-23T07:33:15;4.07;;;2.33;;
1258;SDS011;619;51.472;6.628;2023-03-23T07:35:41;2.90;;;1.80;;
1258;SDS011;619;51.472;6.628;2023-03-23T07:38:07;5.67;;;2.60;;
1258;SDS011;619;51.472;6.628;2023-03-23T07:40:32;2.43;;;1.70;;
1258;SDS011;619;51.472;6.628;2023-03-23T07:43:03;2.90;;;2.00;;
1258;SDS011;619;51.472;6.628;2023-03-23T07:45:30;2.97;;;2.10;;
1258;SDS011;619;51.472;6.628;2023-03-23T07:47:58;4.83;;;2.20;;
1258;SDS011;619;51.472;6.628;2023-03-23T07:50:24;2.77;;;1.67;;
1258;SDS011;619;51.472;6.628;2023-03-23T07:52:53;3.77;;;2.30;;
1258;SDS011;619;51.472;6.628;2023-03-23T07:55:22;5.20;;;2.47;;
1258;SDS011;619;51.472;6.628;2023-03-23T07:57:49;4.00;;;2.67;;
1258;SDS011;619;51.472;6.628;2023-03-23T08:00:18;3.83;;;2.40;;
1258;SDS011;619;51.472;6.628;2023-03-23T08:02:57;6.40;;;2.30;;
1258;SDS011;619;51.472;6.628;2023-03-23T08:05:24;3.73;;;1.87;;
1258;SDS011;619;51.472;6.628;2023-03-23T08:07:51;4.97;;;2.07;;
1258;SDS011;619;51.472;6.628;2023-03-23T08:10:19;3.17;;;1.80;;
1258;SDS011;619;51.472;6.628;2023-03-23T08:12:49;4.37;;;2.33;;
1258;SDS011;619;51.472;6.628;2023-03-23T08:15:22;3.50;;;1.77;;
1258;SDS011;619;51.472;6.628;2023-03-23T08:17:48;3.40;;;1.60;;
1258;SDS011;619;51.472;6.628;2023-03-23T08:20:17;5.17;;;2.00;;
1258;SDS011;619;51.472;6.628;2023-03-23T08:22:44;4.60;;;2.10;;
1258;SDS011;619;51.472;6.628;2023-03-23T08:25:17;7.33;;;2.80;;
1258;SDS011;619;51.472;6.628;2023-03-23T08:27:44;3.17;;;2.20;;
1258;SDS011;619;51.472;6.628;2023-03-23T08:30:14;3.10;;;1.70;;
1258;SDS011;619;51.472;6.628;2023-03-23T08:32:44;3.90;;;2.20;;
1258;SDS011;619;51.472;6.628;2023-03-23T08:35:13;4.43;;;1.93;;
1258;SDS011;619;51.472;6.628;2023-03-23T08:37:40;3.03;;;1.60;;
1258;SDS011;619;51.472;6.628;2023-03-23T08:40:09;4.73;;;2.00;;
1258;SDS011;619;51.472;6.628;2023-03-23T08:42:37;3.40;;;1.83;;
1258;SDS011;619;51.472;6.628;2023-03-23T08:45:05;3.40;;;1.63;;
1258;SDS011;619;51.472;6.628;2023-03-23T08:47:34;6.73;;;2.10;;
1258;SDS011;619;51.472;6.628;2023-03-23T08:50:00;4.77;;;1.90;;
1258;SDS011;619;51.472;6.628;2023-03-23T08:52:28;5.50;;;2.77;;
1258;SDS011;619;51.472;6.628;2023-03-23T08:54:54;5.00;;;2.63;;
1258;SDS011;619;51.472;6.628;2023-03-23T08:57:24;5.73;;;2.83;;
1258;SDS011;619;51.472;6.628;2023-03-23T08:59:56;4.33;;;3.00;;
1258;SDS011;619;51.472;6.628;2023-03-23T09:02:38;5.20;;;2.23;;
1258;SDS011;619;51.472;6.628;2023-03-23T09:05:07;4.27;;;2.17;;
1258;SDS011;619;51.472;6.628;2023-03-23T09:07:35;4.97;;;1.97;;
1258;SDS011;619;51.472;6.628;2023-03-23T09:10:02;3.43;;;1.87;;
1258;SDS011;619;51.472;6.628;2023-03-23T09:12:30;5.27;;;2.30;;
1258;SDS011;619;51.472;6.628;2023-03-23T09:14:56;3.97;;;1.70;;
1258;SDS011;619;51.472;6.628;2023-03-23T09:17:36;2.40;;;1.40;;
1258;SDS011;619;51.472;6.628;2023-03-23T09:20:08;2.27;;;1.00;;
1258;SDS011;619;51.472;6.628;2023-03-23T09:22:43;5.63;;;1.27;;
1258;SDS011;619;51.472;6.628;2023-03-23T09:25:11;4.50;;;1.53;;
1258;SDS011;619;51.472;6.628;2023-03-23T09:27:38;6.90;;;1.87;;
1258;SDS011;619;51.472;6.628;2023-03-23T09:30:06;4.00;;;1.50;;
1258;SDS011;619;51.472;6.628;2023-03-23T09:32:35;2.03;;;1.23;;
1258;SDS011;619;51.472;6.628;2023-03-23T09:35:04;5.57;;;1.40;;
1258;SDS011;619;51.472;6.628;2023-03-23T09:37:37;1.80;;;1.17;;
1258;SDS011;619;51.472;6.628;2023-03-23T09:40:06;4.33;;;1.20;;
1258;SDS011;619;51.472;6.628;2023-03-23T09:51:08;5.07;;;1.20;;
1258;SDS011;619;51.472;6.628;2023-03-23T09:53:41;3.60;;;1.50;;
1258;SDS011;619;51.472;6.628;2023-03-23T09:56:12;6.60;;;1.10;;
1258;SDS011;619;51.472;6.628;2023-03-23T09:58:57;1.63;;;0.93;;
1258;SDS011;619;51.472;6.628;2023-03-23T10:01:41;3.73;;;1.20;;
1258;SDS011;619;51.472;6.628;2023-03-23T10:06:52;2.10;;;1.30;;
1258;SDS011;619;51.472;6.628;2023-03-23T10:09:23;2.27;;;1.00;;
1258;SDS011;619;51.472;6.628;2023-03-23T10:17:33;3.17;;;1.00;;
1258;SDS011;619;51.472;6.628;2023-03-23T10:22:43;2.07;;;1.23;;
1258;SDS011;619;51.472;6.628;2023-03-23T10:25:15;3.30;;;0.90;;
1258;SDS011;619;51.472;6.628;2023-03-23T10:30:27;3.40;;;1.53;;
1258;SDS011;619;51.472;6.628;2023-03-23T10:33:15;2.67;;;1.20;;
1258;SDS011;619;51.472;6.628;2023-03-23T10:36:03;2.33;;;1.53;;
1258;SDS011;619;51.472;6.628;2023-03-23T10:38:38;5.40;;;1.63;;
1258;SDS011;619;51.472;6.628;2023-03-23T10:41:18;6.43;;;1.00;;
1258;SDS011;619;51.472;6.628;2023-03-23T10:43:45;2.20;;;0.90;;
1258;SDS011;619;51.472;6.628;2023-03-23T10:46:19;2.33;;;1.10;;
1258;SDS011;619;51.472;6.628;2023-03-23T10:49:12;2.30;;;1.20;;
1258;SDS011;619;51.472;6.628;2023-03-23T10:51:57;1.70;;;0.90;;
1258;SDS011;619;51.472;6.628;2023-03-23T10:54:38;3.83;;;1.30;;
1258;SDS011;619;51.472;6.628;2023-03-23T10:57:12;2.60;;;1.43;;
1258;SDS011;619;51.472;6.628;2023-03-23T10:59:57;3.20;;;1.67;;
1258;SDS011;619;51.472;6.628;2023-03-23T11:02:31;3.37;;;1.03;;
1258;SDS011;619;51.472;6.628;2023-03-23T11:05:04;2.03;;;0.93;;
1258;SDS011;619;51.472;6.628;2023-03-23T11:07:55;3.10;;;1.47;;
1258;SDS011;619;51.472;6.628;2023-03-23T11:12:49;4.80;;;1.80;;
1258;SDS011;619;51.472;6.628;2023-03-23T11:15:35;3.33;;;1.50;;
1258;SDS011;619;51.472;6.628;2023-03-23T11:18:10;3.10;;;1.30;;
1258;SDS011;619;51.472;6.628;2023-03-23T11:20:39;4.60;;;1.37;;
1258;SDS011;619;51.472;6.628;2023-03-23T11:23:07;1.70;;;0.90;;
1258;SDS011;619;51.472;6.628;2023-03-23T11:25:56;7.17;;;1.50;;
1258;SDS011;619;51.472;6.628;2023-03-23T11:28:27;2.80;;;0.87;;
1258;SDS011;619;51.472;6.628;2023-03-23T11:30:56;2.37;;;1.10;;
1258;SDS011;619;51.472;6.628;2023-03-23T11:33:24;2.80;;;1.03;;
1258;SDS011;619;51.472;6.628;2023-03-23T11:35:53;3.73;;;1.10;;
1258;SDS011;619;51.472;6.628;2023-03-23T11:38:24;4.50;;;0.93;;
1258;SDS011;619;51.472;6.628;2023-03-23T11:40:53;2.70;;;1.00;;
1258;SDS011;619;51.472;6.628;2023-03-23T11:43:23;2.77;;;1.03;;
1258;SDS011;619;51.472;6.628;2023-03-23T11:51:30;1.47;;;0.97;;
1258;SDS011;619;51.472;6.628;2023-03-23T11:54:48;1.87;;;0.93;;
1258;SDS011;619;51.472;6.628;2023-03-23T11:56:57;2.70;;;1.10;;
1258;SDS011;619;51.472;6.628;2023-03-23T11:59:26;1.80;;;1.17;;
1258;SDS011;619;51.472;6.628;2023-03-23T12:02:31;2.57;;;1.20;;
1258;SDS011;619;51.472;6.628;2023-03-23T12:10:27;1.73;;;1.30;;
1258;SDS011;619;51.472;6.628;2023-03-23T12:15:45;5.00;;;1.00;;
1258;SDS011;619;51.472;6.628;2023-03-23T12:24:36;2.70;;;1.37;;
1258;SDS011;619;51.472;6.628;2023-03-23T12:44:06;1.53;;;1.17;;
1258;SDS011;619;51.472;6.628;2023-03-23T12:49:39;1.87;;;1.00;;
1258;SDS011;619;51.472;6.628;2023-03-23T12:52:17;2.80;;;1.53;;
1258;SDS011;619;51.472;6.628;2023-03-23T12:54:58;2.73;;;1.80;;
1258;SDS011;619;51.472;6.628;2023-03-23T12:57:49;2.47;;;1.20;;
1258;SDS011;619;51.472;6.628;2023-03-23T13:09:11;3.13;;;2.03;;
1258;SDS011;619;51.472;6.628;2023-03-23T13:11:41;2.57;;;1.10;;
1258;SDS011;619;51.472;6.628;2023-03-23T13:28:51;3.43;;;2.00;;
1258;SDS011;619;51.472;6.628;2023-03-23T13:33:51;4.83;;;2.23;;
1258;SDS011;619;51.472;6.628;2023-03-23T13:36:26;3.20;;;1.83;;
1258;SDS011;619;51.472;6.628;2023-03-23T13:38:55;2.73;;;1.90;;
1258;SDS011;619;51.472;6.628;2023-03-23T13:41:26;3.30;;;2.30;;
1258;SDS011;619;51.472;6.628;2023-03-23T13:43:52;5.37;;;2.63;;
1258;SDS011;619;51.472;6.628;2023-03-23T13:46:30;4.10;;;2.20;;
1258;SDS011;619;51.472;6.628;2023-03-23T13:54:49;2.87;;;2.60;;
1258;SDS011;619;51.472;6.628;2023-03-23T13:57:19;4.07;;;1.93;;
1258;SDS011;619;51.472;6.628;2023-03-23T13:59:54;2.97;;;2.07;;
1258;SDS011;619;51.472;6.628;2023-03-23T14:04:56;3.00;;;2.00;;
1258;SDS011;619;51.472;6.628;2023-03-23T14:07:22;2.70;;;1.90;;
1258;SDS011;619;51.472;6.628;2023-03-23T14:09:50;3.87;;;2.30;;
1258;SDS011;619;51.472;6.628;2023-03-23T14:14:51;4.30;;;2.40;;
1258;SDS011;619;51.472;6.628;2023-03-23T14:17:30;3.57;;;2.17;;
1258;SDS011;619;51.472;6.628;2023-03-23T14:19:58;6.60;;;3.03;;
1258;SDS011;619;51.472;6.628;2023-03-23T14:22:32;4.67;;;2.60;;
1258;SDS011;619;51.472;6.628;2023-03-23T14:27:38;3.17;;;2.10;;
1258;SDS011;619;51.472;6.628;2023-03-23T14:30:08;3.50;;;2.47;;
1258;SDS011;619;51.472;6.628;2023-03-23T14:32:38;2.60;;;1.90;;
1258;SDS011;619;51.472;6.628;2023-03-23T14:35:08;4.20;;;1.97;;
1258;SDS011;619;51.472;6.628;2023-03-23T14:37:41;5.37;;;2.27;;
1258;SDS011;619;51.472;6.628;2023-03-23T14:40:13;4.07;;;2.23;;
1258;SDS011;619;51.472;6.628;2023-03-23T14:42:43;3.57;;;2.70;;
1258;SDS011;619;51.472;6.628;2023-03-23T14:45:11;4.57;;;2.57;;
1258;SDS011;619;51.472;6.628;2023-03-23T14:47:50;5.57;;;2.47;;
1258;SDS011;619;51.472;6.628;2023-03-23T14:50:38;3.10;;;2.37;;
1258;SDS011;619;51.472;6.628;2023-03-23T14:55:41;3.77;;;2.37;;
1258;SDS011;619;51.472;6.628;2023-03-23T14:58:08;4.63;;;2.70;;
1258;SDS011;619;51.472;6.628;2023-03-23T15:00:39;5.10;;;2.13;;
1258;SDS011;619;51.472;6.628;2023-03-23T15:03:34;6.20;;;2.30;;
1258;SDS011;619;51.472;6.628;2023-03-23T15:06:13;3.43;;;2.07;;
1258;SDS011;619;51.472;6.628;2023-03-23T15:08:44;4.67;;;1.80;;
1258;SDS011;619;51.472;6.628;2023-03-23T15:11:20;5.10;;;1.93;;
1258;SDS011;619;51.472;6.628;2023-03-23T15:13:52;3.90;;;1.90;;
1258;SDS011;619;51.472;6.628;2023-03-23T15:16:24;3.53;;;1.40;;
1258;SDS011;619;51.472;6.628;2023-03-23T15:18:59;4.17;;;1.30;;
1258;SDS011;619;51.472;6.628;2023-03-23T15:21:45;4.17;;;1.80;;
1258;SDS011;619;51.472;6.628;2023-03-23T15:24:20;4.60;;;1.87;;
1258;SDS011;619;51.472;6.628;2023-03-23T15:29:52;2.97;;;1.90;;
1258;SDS011;619;51.472;6.628;2023-03-23T15:32:30;7.10;;;2.07;;
1258;SDS011;619;51.472;6.628;2023-03-23T15:35:03;3.03;;;1.70;;
1258;SDS011;619;51.472;6.628;2023-03-23T15:37:41;4.13;;;2.30;;
1258;SDS011;619;51.472;6.628;2023-03-23T15:40:16;2.80;;;1.73;;
1258;SDS011;619;51.472;6.628;2023-03-23T15:42:46;2.83;;;1.60;;
1258;SDS011;619;51.472;6.628;2023-03-23T15:55:43;3.77;;;1.83;;
1258;SDS011;619;51.472;6.628;2023-03-23T15:58:11;3.60;;;2.23;;
1258;SDS011;619;51.472;6.628;2023-03-23T16:00:41;3.40;;;1.90;;
1258;SDS011;619;51.472;6.628;2023-03-23T16:03:13;3.00;;;1.87;;
1258;SDS011;619;51.472;6.628;2023-03-23T16:05:46;5.10;;;1.93;;
1258;SDS011;619;51.472;6.628;2023-03-23T16:08:12;5.00;;;1.90;;
1258;SDS011;619;51.472;6.628;2023-03-23T16:10:38;4.80;;;2.47;;
1258;SDS011;619;51.472;6.628;2023-03-23T16:13:04;4.10;;;2.00;;
1258;SDS011;619;51.472;6.628;2023-03-23T16:15:31;6.23;;;2.27;;
1258;SDS011;619;51.472;6.628;2023-03-23T16:17:56;3.83;;;1.83;;
1258;SDS011;619;51.472;6.628;2023-03-23T16:20:22;6.20;;;2.20;;
1258;SDS011;619;51.472;6.628;2023-03-23T16:22:49;4.43;;;2.70;;
1258;SDS011;619;51.472;6.628;2023-03-23T16:25:18;3.80;;;1.97;;
1258;SDS011;619;51.472;6.628;2023-03-23T16:27:43;6.73;;;2.63;;
1258;SDS011;619;51.472;6.628;2023-03-23T16:30:19;4.10;;;2.97;;
1258;SDS011;619;51.472;6.628;2023-03-23T16:32:47;5.93;;;2.53;;
1258;SDS011;619;51.472;6.628;2023-03-23T16:35:13;3.40;;;2.27;;
1258;SDS011;619;51.472;6.628;2023-03-23T16:37:43;3.97;;;2.03;;
1258;SDS011;619;51.472;6.628;2023-03-23T16:40:21;4.43;;;2.30;;
1258;SDS011;619;51.472;6.628;2023-03-23T16:42:47;5.03;;;2.30;;
1258;SDS011;619;51.472;6.628;2023-03-23T16:45:18;5.53;;;2.23;;
1258;SDS011;619;51.472;6.628;2023-03-23T16:47:47;6.60;;;2.40;;
1258;SDS011;619;51.472;6.628;2023-03-23T16:50:16;3.93;;;2.60;;
1258;SDS011;619;51.472;6.628;2023-03-23T16:52:43;5.80;;;2.77;;
1258;SDS011;619;51.472;6.628;2023-03-23T16:55:12;6.93;;;3.00;;
1258;SDS011;619;51.472;6.628;2023-03-23T16:57:39;6.73;;;2.37;;
1258;SDS011;619;51.472;6.628;2023-03-23T17:00:08;6.03;;;2.30;;
1258;SDS011;619;51.472;6.628;2023-03-23T17:02:39;4.37;;;2.33;;
1258;SDS011;619;51.472;6.628;2023-03-23T17:05:09;9.90;;;3.10;;
1258;SDS011;619;51.472;6.628;2023-03-23T17:07:36;4.80;;;2.80;;
1258;SDS011;619;51.472;6.628;2023-03-23T17:10:03;4.00;;;2.13;;
1258;SDS011;619;51.472;6.628;2023-03-23T17:12:30;4.70;;;2.63;;
1258;SDS011;619;51.472;6.628;2023-03-23T17:14:56;5.00;;;3.03;;
1258;SDS011;619;51.472;6.628;2023-03-23T17:17:24;4.57;;;2.60;;
1258;SDS011;619;51.472;6.628;2023-03-23T17:19:51;6.37;;;3.13;;
1258;SDS011;619;51.472;6.628;2023-03-23T17:22:17;3.80;;;2.30;;
1258;SDS011;619;51.472;6.628;2023-03-23T17:24:48;5.80;;;2.63;;
1258;SDS011;619;51.472;6.628;2023-03-23T17:27:17;5.90;;;3.17;;
1258;SDS011;619;51.472;6.628;2023-03-23T17:29:46;9.33;;;3.20;;
1258;SDS011;619;51.472;6.628;2023-03-23T17:32:14;7.47;;;3.40;;
1258;SDS011;619;51.472;6.628;2023-03-23T17:34:42;7.37;;;3.63;;
1258;SDS011;619;51.472;6.628;2023-03-23T17:37:12;8.60;;;4.50;;
1258;SDS011;619;51.472;6.628;2023-03-23T17:39:40;10.40;;;4.90;;
1258;SDS011;619;51.472;6.628;2023-03-23T17:42:06;6.83;;;4.00;;
1258;SDS011;619;51.472;6.628;2023-03-23T17:44:32;7.40;;;5.00;;
1258;SDS011;619;51.472;6.628;2023-03-23T17:47:00;6.10;;;4.47;;
1258;SDS011;619;51.472;6.628;2023-03-23T17:49:28;6.40;;;3.80;;
1258;SDS011;619;51.472;6.628;2023-03-23T17:51:57;6.50;;;4.40;;
1258;SDS011;619;51.472;6.628;2023-03-23T17:54:23;7.17;;;4.10;;
1258;SDS011;619;51.472;6.628;2023-03-23T17:56:53;11.00;;;3.10;;
1258;SDS011;619;51.472;6.628;2023-03-23T17:59:21;6.60;;;3.40;;
1258;SDS011;619;51.472;6.628;2023-03-23T18:01:50;5.13;;;3.20;;
1258;SDS011;619;51.472;6.628;2023-03-23T18:04:17;5.73;;;2.90;;
1258;SDS011;619;51.472;6.628;2023-03-23T18:06:46;4.17;;;3.00;;
1258;SDS011;619;51.472;6.628;2023-03-23T18:09:12;4.63;;;1.77;;
1258;SDS011;619;51.472;6.628;2023-03-23T18:11:38;4.40;;;2.50;;
1258;SDS011;619;51.472;6.628;2023-03-23T18:14:04;5.43;;;2.93;;
1258;SDS011;619;51.472;6.628;2023-03-23T18:16:30;5.00;;;2.80;;
1258;SDS011;619;51.472;6.628;2023-03-23T18:18:58;4.03;;;2.17;;